KALNKDMO

Guest
Details From KALN - St Louis Rgnl
To KDMO - Sedalia Mem
Flight Number -
Tags Generated
Created
Modified
Stats Distance 147 nm / 272 km
Max Altitude 0 ft / 0 m
Waypoints 2
Social Downloads 0
Likes 0
Share VATSIM

Download

Looking for another format? Having issues loading an existing format? Contact us
Advertisement - Login to hide

Notes

Generated

Route

KALN KDMO

ID Type Via Altitude Latitude Longitude Leg Dist Tot Dist Heading (true) Name
O KALN APT - 0 ft / 0 m 38.89847˚ -90.05253˚ - 0 nm - -
O KDMO APT - 0 ft / 0 m 38.70167˚ -93.18600˚ 147 nm 147 nm 266° / 264° -

Altitude Profile

Advertisement - Login to hide

KALN

Details ICAO KALN
Name ST LOUIS RGNL
Region United States
Timezone America/Chicago (UTC-6.0)
Stats Elevation 544 ft / 166 m (AMSL)
Location 38.890223° -90.046554°
Runways 2
Magnetic Variation 1.675° W

METAR

KALN 140815Z AUTO 33006KT 10SM OVC029 01/M04 A2994 RMK AO2 T00111037

Decode

TAF

Not found

Departure Runways

ID Width Length Bearing (true) Bearing (mag) Surface Threshold Offset Overrun Length
11 150 ft / 46 m 8,088 ft / 2,465 m 113.43° 115.11° Asphalt 0 ft / 0 m 0 ft / 0 m
17 100 ft / 30 m 6,513 ft / 1,985 m 173.38° 175.06° Asphalt 0 ft / 0 m 0 ft / 0 m
29 150 ft / 46 m 8,088 ft / 2,465 m 293.45° 295.13° Asphalt 0 ft / 0 m 0 ft / 0 m
35 100 ft / 30 m 6,513 ft / 1,985 m 353.38° 355.06° Asphalt 0 ft / 0 m 0 ft / 0 m

KDMO

Details ICAO KDMO
Name SEDALIA MEM
Region United States
Timezone America/Chicago (UTC-6.0)
Stats Elevation 909 ft / 277 m (AMSL)
Location 38.706880° -93.176821°
Runways 2
Magnetic Variation 0.668° E

METAR

KDMO 140753Z AUTO 01014KT 10SM OVC039 04/M03 A2996 RMK AO2 SLP146 T00391033

Decode

TAF

Not found

Destination Runways

ID Width Length Bearing (true) Bearing (mag) Surface Threshold Offset Overrun Length
05 50 ft / 15 m 3,517 ft / 1,072 m 54.35° 53.68° Asphalt 0 ft / 0 m 0 ft / 0 m
18 100 ft / 30 m 5,512 ft / 1,680 m 181.68° 181.01° Concrete 0 ft / 0 m 0 ft / 0 m
23 50 ft / 15 m 3,517 ft / 1,072 m 234.36° 233.69° Asphalt 0 ft / 0 m 0 ft / 0 m
36 100 ft / 30 m 5,512 ft / 1,680 m 1.68° 1.01° Concrete 0 ft / 0 m 0 ft / 0 m